Time;durP1;ratioP1;P1;durP2;ratioP2;P2;SDS_P1;SDS_P2;PMS_P1;PMS_P2;Temp;Humidity;BMP_temperature;BMP_pressure;BME280_temperature;BME280_humidity;BME280_pressure;Samples;Min_cycle;Max_cycle;Signal;HPM_P1;HPM_P2
2020/12/12 00:00:12;;;;;;;46.20;26.27;;;5.40;99.90;;;;;;5030297;28;20204;-85
2020/12/12 00:02:38;;;;;;;43.77;25.20;;;5.40;99.90;;;;;;5030503;28;20284;-79
2020/12/12 00:05:06;;;;;;;38.47;26.20;;;5.40;99.90;;;;;;5027188;28;20221;-82
2020/12/12 00:07:32;;;;;;;44.47;27.10;;;5.40;99.90;;;;;;5030681;28;20206;-84
2020/12/12 00:09:58;;;;;;;44.10;26.50;;;5.40;99.90;;;;;;5030187;28;20187;-86
2020/12/12 00:12:25;;;;;;;42.47;24.97;;;5.40;99.90;;;;;;5029856;28;20203;-77
2020/12/12 00:14:51;;;;;;;46.53;26.33;;;5.40;99.90;;;;;;5029721;28;20207;-78
2020/12/12 00:17:19;;;;;;;45.43;26.70;;;5.40;99.90;;;;;;5029022;28;20202;-77
2020/12/12 00:19:45;;;;;;;41.57;24.90;;;5.40;99.90;;;;;;5031111;28;20676;-86
2020/12/12 00:22:12;;;;;;;40.97;25.07;;;5.40;99.90;;;;;;5029476;28;20214;-78
2020/12/12 00:24:38;;;;;;;42.83;25.40;;;5.40;99.90;;;;;;5029106;28;20191;-77
2020/12/12 00:27:05;;;;;;;46.70;26.40;;;5.40;99.90;;;;;;5029021;28;20590;-78
2020/12/12 00:29:31;;;;;;;48.23;27.00;;;5.40;99.90;;;;;;5030936;28;20202;-87
2020/12/12 00:31:58;;;;;;;49.33;25.23;;;5.40;99.90;;;;;;5030176;28;20199;-87
2020/12/12 00:34:25;;;;;;;52.20;26.43;;;5.40;99.90;;;;;;5028486;28;20205;-78
2020/12/12 00:36:52;;;;;;;44.67;26.10;;;5.40;99.90;;;;;;5029550;28;20210;-86
2020/12/12 00:39:20;;;;;;;56.57;28.10;;;5.50;99.90;;;;;;5030001;28;20242;-86
2020/12/12 00:41:46;;;;;;;49.17;26.93;;;5.50;99.90;;;;;;5030108;28;20199;-87
2020/12/12 00:44:14;;;;;;;45.47;25.20;;;5.40;99.90;;;;;;5030556;28;20317;-77
2020/12/12 00:46:40;;;;;;;48.83;26.30;;;5.40;99.90;;;;;;5028359;28;20207;-76
2020/12/12 00:49:07;;;;;;;52.83;27.47;;;5.40;99.90;;;;;;5029543;28;20256;-88
2020/12/12 00:51:34;;;;;;;43.33;25.93;;;5.40;99.90;;;;;;5031220;28;20213;-87
2020/12/12 00:54:00;;;;;;;51.00;27.80;;;5.40;99.90;;;;;;5029557;28;20198;-78
2020/12/12 00:56:27;;;;;;;41.93;25.73;;;5.40;99.90;;;;;;5029108;28;20205;-79
2020/12/12 00:58:54;;;;;;;54.73;27.67;;;5.40;99.90;;;;;;5029885;28;20217;-85
2020/12/12 01:01:20;;;;;;;53.67;29.33;;;5.50;99.90;;;;;;5030792;28;20210;-86
2020/12/12 01:03:48;;;;;;;44.43;25.07;;;5.50;99.90;;;;;;5028976;28;20233;-77
2020/12/12 01:06:16;;;;;;;50.40;28.33;;;5.50;99.90;;;;;;5027321;28;20237;-76
2020/12/12 01:08:43;;;;;;;45.53;25.70;;;5.50;99.90;;;;;;5030570;28;20379;-86
2020/12/12 01:11:11;;;;;;;47.60;28.17;;;5.50;99.90;;;;;;5033844;28;20207;-87
2020/12/12 01:13:39;;;;;;;54.33;27.77;;;5.50;99.90;;;;;;5032741;28;20221;-88
2020/12/12 01:16:07;;;;;;;52.73;27.60;;;5.50;99.90;;;;;;5032668;28;20218;-87
2020/12/12 01:18:33;;;;;;;56.80;29.03;;;5.50;99.90;;;;;;5031910;28;20249;-88
2020/12/12 01:20:59;;;;;;;44.63;27.10;;;5.40;99.90;;;;;;5032325;28;20198;-88
2020/12/12 01:23:26;;;;;;;49.23;26.00;;;5.50;99.90;;;;;;5031972;28;20245;-84
2020/12/12 01:25:52;;;;;;;48.60;27.07;;;5.50;99.90;;;;;;5032171;28;20594;-86
2020/12/12 01:28:20;;;;;;;46.53;25.90;;;5.50;99.90;;;;;;5031433;28;20257;-86
2020/12/12 01:30:48;;;;;;;44.13;26.07;;;5.50;99.90;;;;;;5032107;28;20194;-87
2020/12/12 01:33:15;;;;;;;53.33;26.67;;;5.50;99.90;;;;;;5032034;28;20202;-86
2020/12/12 01:35:42;;;;;;;53.03;27.40;;;5.50;99.90;;;;;;5032012;28;20198;-86
2020/12/12 01:38:08;;;;;;;48.07;28.77;;;5.50;99.90;;;;;;5031632;28;20586;-85
2020/12/12 01:40:34;;;;;;;47.17;25.73;;;5.50;99.90;;;;;;5032054;28;20238;-87
2020/12/12 01:43:01;;;;;;;48.63;28.50;;;5.50;99.90;;;;;;5031928;28;20225;-87
2020/12/12 01:45:27;;;;;;;43.83;25.30;;;5.50;99.90;;;;;;5032241;28;20202;-86
2020/12/12 01:47:55;;;;;;;51.77;27.33;;;5.50;99.90;;;;;;5031267;28;20210;-87
2020/12/12 01:50:22;;;;;;;45.90;25.17;;;5.50;99.90;;;;;;5032235;28;20721;-87
2020/12/12 01:52:50;;;;;;;49.33;26.13;;;5.50;99.90;;;;;;5031661;28;20205;-85
2020/12/12 01:55:18;;;;;;;37.77;25.20;;;5.50;99.90;;;;;;5029863;28;20608;-76
2020/12/12 01:57:47;;;;;;;44.07;24.53;;;5.50;99.90;;;;;;5030700;28;20633;-85
2020/12/12 02:00:14;;;;;;;55.23;27.57;;;5.50;99.90;;;;;;5031890;28;20206;-86
2020/12/12 02:02:45;;;;;;;49.40;28.10;;;5.50;99.90;;;;;;5031851;28;20203;-86
2020/12/12 02:05:38;;;;;;;46.17;24.40;;;5.50;99.90;;;;;;5031314;28;20199;-87
2020/12/12 02:08:07;;;;;;;49.07;26.20;;;5.50;99.90;;;;;;5030993;28;20253;-86
2020/12/12 02:10:33;;;;;;;49.53;27.33;;;5.50;99.90;;;;;;5030280;28;20214;-85
2020/12/12 02:13:00;;;;;;;53.37;28.43;;;5.50;99.90;;;;;;5030921;28;20199;-82
2020/12/12 02:15:26;;;;;;;55.60;29.60;;;5.50;99.90;;;;;;5030987;28;20210;-88
2020/12/12 02:17:53;;;;;;;46.73;27.37;;;5.50;99.90;;;;;;5031022;28;20368;-87
2020/12/12 02:20:20;;;;;;;52.03;28.53;;;5.50;99.90;;;;;;5030601;28;20209;-85
2020/12/12 02:22:47;;;;;;;50.83;26.93;;;5.50;99.90;;;;;;5031123;28;20242;-86
2020/12/12 02:25:13;;;;;;;48.33;28.93;;;5.50;99.90;;;;;;5031208;28;20210;-87
2020/12/12 02:27:39;;;;;;;49.70;27.23;;;5.60;99.90;;;;;;5031382;28;20206;-85
2020/12/12 02:30:07;;;;;;;51.60;26.93;;;5.60;99.90;;;;;;5030725;28;20203;-85
2020/12/12 02:32:33;;;;;;;60.77;30.40;;;5.60;99.90;;;;;;5026728;28;20508;-87
2020/12/12 02:34:59;;;;;;;48.53;27.33;;;5.50;99.90;;;;;;5024466;28;20202;-87
2020/12/12 02:37:25;;;;;;;56.00;29.67;;;5.50;99.90;;;;;;5024841;28;20209;-87
2020/12/12 02:39:53;;;;;;;44.33;27.47;;;5.50;99.90;;;;;;5024233;28;20254;-86
2020/12/12 02:42:19;;;;;;;51.83;30.13;;;5.50;99.90;;;;;;5030377;28;20207;-86
2020/12/12 02:44:50;;;;;;;55.53;29.03;;;5.50;99.90;;;;;;5030090;28;20653;-86
2020/12/12 02:47:17;;;;;;;46.40;27.97;;;5.50;99.90;;;;;;5030013;28;20197;-85
2020/12/12 02:49:44;;;;;;;48.53;29.10;;;5.50;99.90;;;;;;5031179;28;20629;-86
2020/12/12 02:52:10;;;;;;;50.63;30.07;;;5.50;99.90;;;;;;5030292;28;20198;-86
2020/12/12 02:54:36;;;;;;;47.20;28.20;;;5.50;99.90;;;;;;5030343;28;20218;-85
2020/12/12 02:57:03;;;;;;;51.17;27.97;;;5.50;99.90;;;;;;5027993;28;20209;-82
2020/12/12 02:59:29;;;;;;;52.30;28.27;;;5.50;99.90;;;;;;5025049;28;20209;-85
2020/12/12 03:01:56;;;;;;;53.90;28.63;;;5.50;99.90;;;;;;5024607;28;20207;-85
2020/12/12 03:04:22;;;;;;;50.67;28.10;;;5.50;99.90;;;;;;5024136;28;20238;-80
2020/12/12 03:06:48;;;;;;;52.33;28.53;;;5.50;99.90;;;;;;5023860;28;20618;-78
2020/12/12 03:09:15;;;;;;;61.70;33.37;;;5.50;99.90;;;;;;5023686;28;20208;-76
2020/12/12 03:11:41;;;;;;;56.67;31.43;;;5.50;99.90;;;;;;5023832;28;20234;-83
2020/12/12 03:14:08;;;;;;;54.97;28.40;;;5.50;99.90;;;;;;5024224;28;20199;-77
2020/12/12 03:16:34;;;;;;;52.40;29.73;;;5.50;99.90;;;;;;5025097;28;20211;-86
2020/12/12 03:19:01;;;;;;;53.73;28.37;;;5.50;99.90;;;;;;5023903;28;20493;-81
2020/12/12 03:21:27;;;;;;;55.80;29.70;;;5.50;99.90;;;;;;5010810;28;20199;-80
2020/12/12 03:23:53;;;;;;;49.60;27.73;;;5.50;99.90;;;;;;5004882;28;20227;-77
2020/12/12 03:26:19;;;;;;;52.53;29.93;;;5.50;99.90;;;;;;5004596;28;20230;-78
2020/12/12 03:28:46;;;;;;;53.53;30.57;;;5.50;99.90;;;;;;5004534;28;20595;-79
2020/12/12 03:31:13;;;;;;;50.33;29.70;;;5.50;99.90;;;;;;5004801;28;20206;-79
2020/12/12 03:33:39;;;;;;;52.77;28.93;;;5.50;99.90;;;;;;5004551;28;20206;-81
2020/12/12 03:36:06;;;;;;;56.47;29.50;;;5.50;99.90;;;;;;5004326;28;20203;-82
2020/12/12 03:38:32;;;;;;;60.77;32.03;;;5.50;99.90;;;;;;5003666;28;20206;-79
2020/12/12 03:40:58;;;;;;;54.00;30.37;;;5.50;99.90;;;;;;5007184;28;20227;-86
2020/12/12 03:43:25;;;;;;;57.03;30.30;;;5.50;99.90;;;;;;5008669;28;20552;-84
2020/12/12 03:45:51;;;;;;;50.57;28.23;;;5.50;99.90;;;;;;5010514;28;20203;-84
2020/12/12 03:48:18;;;;;;;60.27;31.37;;;5.50;99.90;;;;;;5010210;28;20211;-85
2020/12/12 03:50:45;;;;;;;55.50;29.83;;;5.50;99.90;;;;;;5009280;28;20215;-84
2020/12/12 03:53:11;;;;;;;59.53;31.57;;;5.50;99.90;;;;;;5009688;28;20210;-85
2020/12/12 03:55:37;;;;;;;43.23;27.40;;;5.50;99.90;;;;;;5010060;28;20286;-85
2020/12/12 03:58:04;;;;;;;59.60;30.13;;;5.50;99.90;;;;;;5009364;28;20203;-85
2020/12/12 04:00:30;;;;;;;48.57;29.53;;;5.50;99.90;;;;;;5010362;28;20203;-85
2020/12/12 04:02:56;;;;;;;55.17;30.67;;;5.50;99.90;;;;;;5005777;28;20211;-86
2020/12/12 04:05:23;;;;;;;50.37;30.67;;;5.50;99.90;;;;;;5004291;28;20223;-86
2020/12/12 04:07:49;;;;;;;53.70;29.67;;;5.50;99.90;;;;;;5007261;28;20210;-85
2020/12/12 04:10:16;;;;;;;48.37;27.97;;;5.40;99.90;;;;;;5008863;28;20196;-85
2020/12/12 04:12:42;;;;;;;54.30;30.33;;;5.50;99.90;;;;;;5005074;28;20207;-80
2020/12/12 04:15:08;;;;;;;54.73;29.33;;;5.50;99.90;;;;;;5005502;28;20308;-82
2020/12/12 04:17:34;;;;;;;56.33;30.23;;;5.50;99.90;;;;;;5005450;28;20206;-83
2020/12/12 04:20:01;;;;;;;47.87;29.13;;;5.50;99.90;;;;;;5006326;28;20203;-80
2020/12/12 04:22:28;;;;;;;61.60;32.70;;;5.50;99.90;;;;;;5009079;28;20203;-85
2020/12/12 04:24:54;;;;;;;50.30;30.40;;;5.50;99.90;;;;;;5007488;28;20230;-74
2020/12/12 04:27:20;;;;;;;53.10;29.50;;;5.50;99.90;;;;;;5008890;28;20207;-86
2020/12/12 04:29:46;;;;;;;66.87;33.27;;;5.50;99.90;;;;;;5010158;28;20195;-85
2020/12/12 04:32:13;;;;;;;54.77;31.60;;;5.50;99.90;;;;;;5008139;28;20218;-79
2020/12/12 04:34:39;;;;;;;62.27;29.67;;;5.50;99.90;;;;;;5008938;28;20200;-78
2020/12/12 04:37:05;;;;;;;60.67;32.33;;;5.50;99.90;;;;;;5008026;28;20234;-78
2020/12/12 04:39:33;;;;;;;64.30;32.77;;;5.40;99.90;;;;;;5008099;28;20253;-86
2020/12/12 04:42:00;;;;;;;73.17;32.37;;;5.40;99.90;;;;;;5007722;28;20613;-76
2020/12/12 04:44:26;;;;;;;68.23;34.97;;;5.40;99.90;;;;;;5007257;28;20234;-75
2020/12/12 04:46:54;;;;;;;73.77;33.43;;;5.40;99.90;;;;;;5008320;28;20215;-75
2020/12/12 04:49:20;;;;;;;55.27;30.67;;;5.40;99.90;;;;;;5008592;28;20210;-77
2020/12/12 04:51:48;;;;;;;83.30;33.67;;;5.40;99.90;;;;;;5007730;28;20199;-78
2020/12/12 04:54:19;;;;;;;59.67;31.93;;;5.40;99.90;;;;;;5007385;28;20230;-77
2020/12/12 04:56:46;;;;;;;54.40;30.53;;;5.40;99.90;;;;;;5008562;28;20215;-79
2020/12/12 04:59:14;;;;;;;56.13;32.67;;;5.40;99.90;;;;;;5007441;28;20203;-87
2020/12/12 05:01:41;;;;;;;59.03;32.70;;;5.40;99.90;;;;;;5007289;28;20214;-78
2020/12/12 05:04:08;;;;;;;59.93;32.30;;;5.40;99.90;;;;;;5007075;28;20735;-77
2020/12/12 05:06:35;;;;;;;70.63;32.87;;;5.40;99.90;;;;;;5009096;28;20214;-77
2020/12/12 05:09:01;;;;;;;74.23;34.03;;;5.40;99.90;;;;;;5007969;28;20207;-85
2020/12/12 05:11:28;;;;;;;59.73;31.13;;;5.40;99.90;;;;;;5008329;28;20207;-75
2020/12/12 05:13:55;;;;;;;60.17;31.93;;;5.40;99.90;;;;;;5007094;28;20610;-78
2020/12/12 05:16:21;;;;;;;58.03;31.87;;;5.40;99.90;;;;;;5007141;28;20229;-77
2020/12/12 05:18:50;;;;;;;63.67;31.80;;;5.40;99.90;;;;;;5007510;28;20218;-85
2020/12/12 05:21:17;;;;;;;65.90;33.63;;;5.40;99.90;;;;;;5020866;28;20206;-85
2020/12/12 05:23:43;;;;;;;64.03;33.07;;;5.40;99.90;;;;;;5028330;28;20222;-76
2020/12/12 05:26:12;;;;;;;60.77;30.73;;;5.40;99.90;;;;;;5027390;28;20203;-79
2020/12/12 05:28:39;;;;;;;62.83;30.77;;;5.40;99.90;;;;;;5028308;28;20539;-84
2020/12/12 05:31:07;;;;;;;57.73;31.10;;;5.40;99.90;;;;;;5028462;28;20307;-76
2020/12/12 05:33:33;;;;;;;61.43;30.93;;;5.40;99.90;;;;;;5027320;28;20576;-83
2020/12/12 05:35:59;;;;;;;54.07;29.47;;;5.40;99.90;;;;;;5026812;28;20265;-83
2020/12/12 05:38:26;;;;;;;61.33;29.83;;;5.40;99.90;;;;;;5028580;28;20209;-82
2020/12/12 05:40:55;;;;;;;58.83;30.20;;;5.40;99.90;;;;;;5028533;28;20241;-77
2020/12/12 05:43:29;;;;;;;64.50;30.57;;;5.40;99.90;;;;;;5026429;28;20233;-76
2020/12/12 05:45:56;;;;;;;62.40;30.43;;;5.40;99.90;;;;;;5028734;28;20280;-78
2020/12/12 05:48:23;;;;;;;57.17;29.53;;;5.40;99.90;;;;;;5024699;28;20206;-86
2020/12/12 05:50:49;;;;;;;67.53;29.73;;;5.40;99.90;;;;;;5027592;28;20214;-85
2020/12/12 05:53:16;;;;;;;50.67;27.60;;;5.40;99.90;;;;;;5031211;28;20203;-86
2020/12/12 05:55:45;;;;;;;55.70;27.87;;;5.40;99.90;;;;;;5032044;28;20226;-85
2020/12/12 05:58:12;;;;;;;66.57;30.67;;;5.40;99.90;;;;;;5031253;28;20207;-85
2020/12/12 06:00:39;;;;;;;58.63;29.13;;;5.40;99.90;;;;;;5031184;28;20191;-85
2020/12/12 06:03:21;;;;;;;51.20;27.73;;;5.50;99.90;;;;;;5029227;28;20202;-86
2020/12/12 06:05:53;;;;;;;57.53;29.37;;;5.40;99.90;;;;;;5031580;28;20902;-86
2020/12/12 06:08:32;;;;;;;49.13;26.83;;;5.50;99.90;;;;;;5031476;28;20187;-86
2020/12/12 06:11:04;;;;;;;50.83;26.97;;;5.50;99.90;;;;;;5031419;28;20187;-86
2020/12/12 06:13:35;;;;;;;54.37;27.63;;;5.50;99.90;;;;;;5030442;28;20187;-86
2020/12/12 06:16:04;;;;;;;55.23;28.93;;;5.50;99.90;;;;;;5027203;28;20245;-87
2020/12/12 06:18:42;;;;;;;48.50;26.50;;;5.50;99.90;;;;;;5026154;28;20225;-85
2020/12/12 06:21:10;;;;;;;55.60;26.57;;;5.50;99.90;;;;;;5031002;28;20229;-86
2020/12/12 06:23:38;;;;;;;53.70;26.57;;;5.50;99.90;;;;;;5030693;28;20233;-85
2020/12/12 06:26:05;;;;;;;51.87;27.40;;;5.50;99.90;;;;;;5030454;28;20202;-87
2020/12/12 06:28:36;;;;;;;53.90;26.87;;;5.50;99.90;;;;;;5031085;28;20202;-87
2020/12/12 06:31:04;;;;;;;50.90;26.83;;;5.50;99.90;;;;;;5030980;28;20202;-85
2020/12/12 06:33:30;;;;;;;48.60;26.43;;;5.50;99.90;;;;;;5030884;28;20234;-86
2020/12/12 06:35:56;;;;;;;48.20;25.00;;;5.50;99.90;;;;;;5031136;28;20199;-84
2020/12/12 06:38:26;;;;;;;45.70;24.90;;;5.50;99.90;;;;;;5030323;28;20225;-87
2020/12/12 06:40:54;;;;;;;50.13;26.50;;;5.50;99.90;;;;;;5029955;28;20242;-85
2020/12/12 06:43:29;;;;;;;41.33;23.63;;;5.50;99.90;;;;;;5029892;28;20241;-86
2020/12/12 06:45:56;;;;;;;42.23;24.63;;;5.50;99.90;;;;;;5030675;28;20212;-85
2020/12/12 06:48:23;;;;;;;42.60;23.43;;;5.50;99.90;;;;;;5030117;28;20202;-86
2020/12/12 06:50:50;;;;;;;52.70;27.77;;;5.50;99.90;;;;;;5030786;28;20199;-86
2020/12/12 06:53:18;;;;;;;46.43;24.57;;;5.50;99.90;;;;;;5030180;28;20202;-85
2020/12/12 06:55:45;;;;;;;47.60;24.57;;;5.50;99.90;;;;;;5030136;28;20199;-87
2020/12/12 06:58:24;;;;;;;41.60;23.53;;;5.50;99.90;;;;;;5030381;28;20240;-86
2020/12/12 07:00:50;;;;;;;46.73;23.37;;;5.50;99.90;;;;;;5030316;28;20665;-86
2020/12/12 07:03:21;;;;;;;45.00;24.40;;;5.60;99.90;;;;;;5030062;28;20214;-86
2020/12/12 07:05:48;;;;;;;50.30;24.07;;;5.60;99.90;;;;;;5031240;28;20744;-84
2020/12/12 07:08:14;;;;;;;45.57;23.70;;;5.60;99.90;;;;;;5029713;28;20206;-86
2020/12/12 07:10:42;;;;;;;50.53;25.70;;;5.60;99.90;;;;;;5030565;28;20187;-85
2020/12/12 07:13:10;;;;;;;48.80;23.33;;;5.60;99.90;;;;;;5028977;28;20190;-87
2020/12/12 07:15:38;;;;;;;52.10;25.70;;;5.50;99.90;;;;;;5030339;28;20206;-86
2020/12/12 07:18:05;;;;;;;49.40;25.60;;;5.60;99.90;;;;;;5030575;28;20203;-86
2020/12/12 07:20:33;;;;;;;46.23;24.17;;;5.60;99.90;;;;;;5030385;28;20205;-86
2020/12/12 07:23:02;;;;;;;47.80;24.60;;;5.60;99.90;;;;;;5030248;28;20217;-87
2020/12/12 07:25:29;;;;;;;49.83;24.47;;;5.60;99.90;;;;;;5029791;28;20226;-86
2020/12/12 07:27:55;;;;;;;55.10;26.77;;;5.60;99.90;;;;;;5029992;28;20199;-86
2020/12/12 07:30:22;;;;;;;44.50;23.50;;;5.50;99.90;;;;;;5030011;28;20211;-85
2020/12/12 07:32:49;;;;;;;42.83;24.30;;;5.60;99.90;;;;;;5030629;28;20214;-86
2020/12/12 07:35:15;;;;;;;47.03;24.73;;;5.60;99.90;;;;;;5029831;28;20210;-83
2020/12/12 07:37:41;;;;;;;60.80;26.63;;;5.60;99.90;;;;;;5030056;28;20195;-85
2020/12/12 07:40:08;;;;;;;46.83;25.20;;;5.60;99.90;;;;;;5029582;28;20258;-85
2020/12/12 07:42:35;;;;;;;47.63;25.07;;;5.60;99.90;;;;;;5029146;28;20603;-83
2020/12/12 07:45:13;;;;;;;43.53;23.03;;;5.60;99.90;;;;;;5029051;28;20665;-85
2020/12/12 07:47:40;;;;;;;41.10;23.00;;;5.60;99.90;;;;;;5029241;28;20190;-86
2020/12/12 07:50:07;;;;;;;62.03;25.70;;;5.60;99.90;;;;;;5028884;28;20203;-86
2020/12/12 07:52:33;;;;;;;50.00;26.00;;;5.60;99.90;;;;;;5026008;28;20202;-85
2020/12/12 07:55:03;;;;;;;49.93;24.40;;;5.60;99.90;;;;;;5028715;28;20202;-86
2020/12/12 07:57:30;;;;;;;45.67;25.37;;;5.60;99.90;;;;;;5033688;28;20653;-84
2020/12/12 08:00:06;;;;;;;48.70;27.00;;;5.60;99.90;;;;;;5033086;28;20206;-77
2020/12/12 08:02:32;;;;;;;51.10;25.77;;;5.70;99.90;;;;;;5032172;28;20202;-85
2020/12/12 08:05:01;;;;;;;53.80;26.20;;;5.70;99.90;;;;;;5032246;28;20233;-84
2020/12/12 08:07:30;;;;;;;55.40;28.40;;;5.70;99.90;;;;;;5032212;28;20749;-84
2020/12/12 08:09:56;;;;;;;55.00;26.30;;;5.70;99.90;;;;;;5032277;28;20206;-85
2020/12/12 08:12:29;;;;;;;49.87;25.80;;;5.70;99.90;;;;;;5032467;28;20203;-78
2020/12/12 08:14:57;;;;;;;52.80;26.33;;;5.70;99.90;;;;;;5031677;28;20607;-83
2020/12/12 08:17:30;;;;;;;60.30;29.00;;;5.70;99.90;;;;;;5031895;28;21002;-85
2020/12/12 08:19:57;;;;;;;53.17;26.70;;;5.70;99.90;;;;;;5031972;28;20203;-84
2020/12/12 08:48:15;;;;;;;55.70;27.93;;;5.90;99.90;;;;;;4968550;28;20259;-85
2020/12/12 08:50:46;;;;;;;76.77;33.17;;;5.90;99.90;;;;;;4970727;28;20675;-80
2020/12/12 08:53:29;;;;;;;57.43;29.87;;;5.80;99.90;;;;;;4970110;28;20205;-83
2020/12/12 08:55:59;;;;;;;78.90;31.30;;;5.90;99.90;;;;;;4970086;28;20192;-76
2020/12/12 08:58:33;;;;;;;62.97;29.00;;;5.90;99.90;;;;;;4970830;28;20208;-80
2020/12/12 09:01:09;;;;;;;61.30;29.23;;;6.00;99.90;;;;;;4970941;28;20204;-81
2020/12/12 09:03:46;;;;;;;60.10;29.37;;;6.00;99.90;;;;;;4969973;28;20205;-75
2020/12/12 09:06:13;;;;;;;66.63;29.83;;;6.00;99.90;;;;;;4968672;28;20212;-79
2020/12/12 09:08:39;;;;;;;64.43;30.00;;;6.00;99.90;;;;;;4967337;28;20219;-78
2020/12/12 09:11:12;;;;;;;62.77;30.13;;;6.00;99.90;;;;;;4966593;28;20212;-77
2020/12/12 09:13:39;;;;;;;70.07;31.60;;;6.10;99.90;;;;;;4966549;28;20242;-77
2020/12/12 09:16:09;;;;;;;63.90;30.23;;;6.10;99.90;;;;;;4966258;28;20623;-78
2020/12/12 09:18:46;;;;;;;68.27;30.90;;;6.10;99.90;;;;;;4966077;28;20211;-79
2020/12/12 09:21:12;;;;;;;69.50;31.40;;;6.10;99.90;;;;;;4976353;28;20321;-76
2020/12/12 09:23:39;;;;;;;53.57;28.00;;;6.10;99.90;;;;;;4986032;28;20204;-80
2020/12/12 09:26:07;;;;;;;67.90;30.37;;;6.10;99.90;;;;;;4985798;28;20954;-78
2020/12/12 09:28:34;;;;;;;60.17;29.17;;;6.10;99.90;;;;;;4988050;28;20514;-85
2020/12/12 09:31:00;;;;;;;71.57;32.67;;;6.20;99.90;;;;;;4990030;28;20216;-85
2020/12/12 09:33:27;;;;;;;66.50;29.30;;;6.20;99.90;;;;;;4987415;28;20916;-85
2020/12/12 09:35:54;;;;;;;75.90;32.20;;;6.20;99.90;;;;;;4987050;28;20196;-78
2020/12/12 09:38:20;;;;;;;55.87;27.50;;;6.20;99.90;;;;;;4994680;28;20824;-80
2020/12/12 09:40:49;;;;;;;79.53;32.53;;;6.20;99.90;;;;;;5004641;28;20215;-78
2020/12/12 09:43:16;;;;;;;70.63;32.53;;;6.20;99.90;;;;;;5004381;28;20204;-81
2020/12/12 09:45:42;;;;;;;60.30;30.03;;;6.20;99.90;;;;;;5004832;28;20231;-78
2020/12/12 09:48:09;;;;;;;61.63;29.73;;;6.20;99.90;;;;;;5003430;28;20630;-79
2020/12/12 09:50:36;;;;;;;57.60;28.37;;;6.20;99.90;;;;;;5004994;28;20562;-80
2020/12/12 09:53:05;;;;;;;58.63;29.60;;;6.20;99.90;;;;;;5006403;28;20207;-79
2020/12/12 09:55:33;;;;;;;64.73;30.40;;;6.30;99.90;;;;;;5004488;28;20214;-77
2020/12/12 09:57:59;;;;;;;69.77;32.70;;;6.30;99.90;;;;;;5003858;28;20203;-78
2020/12/12 10:00:26;;;;;;;78.20;34.03;;;6.30;99.90;;;;;;5005130;28;20214;-83
2020/12/12 10:02:53;;;;;;;66.50;30.37;;;6.30;99.90;;;;;;5006414;28;20223;-81
2020/12/12 10:05:19;;;;;;;63.23;28.07;;;6.30;99.90;;;;;;5004931;28;20227;-84
2020/12/12 10:07:46;;;;;;;64.93;30.20;;;6.30;99.90;;;;;;5007576;28;20226;-81
2020/12/12 10:10:13;;;;;;;65.23;29.17;;;6.30;99.90;;;;;;5006774;28;20218;-81
2020/12/12 10:12:39;;;;;;;74.50;31.33;;;6.40;99.90;;;;;;5006752;28;20211;-86
2020/12/12 10:15:05;;;;;;;55.50;26.77;;;6.40;99.90;;;;;;5010074;28;20858;-83
2020/12/12 10:17:32;;;;;;;53.10;27.40;;;6.40;99.90;;;;;;5007983;28;20199;-78
2020/12/12 10:19:58;;;;;;;67.20;31.10;;;6.40;99.90;;;;;;5005906;28;20492;-81
2020/12/12 10:22:25;;;;;;;72.40;30.97;;;6.40;99.90;;;;;;4988962;28;20211;-81
2020/12/12 10:24:54;;;;;;;84.07;32.60;;;6.40;99.90;;;;;;4988832;28;20235;-86
2020/12/12 10:27:21;;;;;;;76.87;30.40;;;6.40;99.90;;;;;;4995197;28;20203;-86
2020/12/12 10:29:47;;;;;;;68.03;31.27;;;6.50;99.90;;;;;;4988323;28;20207;-78
2020/12/12 10:32:13;;;;;;;66.37;29.77;;;6.50;99.90;;;;;;4988185;28;20223;-83
2020/12/12 10:34:40;;;;;;;54.13;27.67;;;6.50;99.90;;;;;;4988943;28;20200;-82
2020/12/12 10:37:06;;;;;;;54.97;26.53;;;6.50;99.90;;;;;;4987062;28;20215;-82
2020/12/12 10:39:35;;;;;;;51.30;24.60;;;6.50;99.90;;;;;;4989397;28;20851;-83
2020/12/12 10:42:01;;;;;;;64.17;28.50;;;6.50;99.90;;;;;;4989352;28;20196;-83
2020/12/12 10:44:28;;;;;;;46.20;24.87;;;6.50;99.90;;;;;;4988720;28;20763;-82
2020/12/12 10:46:55;;;;;;;52.27;25.63;;;6.50;99.90;;;;;;4988684;28;20246;-84
2020/12/12 10:49:21;;;;;;;45.43;23.60;;;6.60;99.90;;;;;;4987653;28;20207;-81
2020/12/12 10:51:48;;;;;;;36.83;21.73;;;6.60;99.90;;;;;;4990296;28;20211;-84
2020/12/12 10:54:16;;;;;;;37.17;21.53;;;6.60;99.90;;;;;;4990185;28;20226;-83
2020/12/12 10:56:43;;;;;;;32.53;20.13;;;6.60;99.90;;;;;;4990097;28;20787;-83
2020/12/12 10:59:10;;;;;;;30.97;20.03;;;6.60;99.90;;;;;;4989116;28;20667;-84
2020/12/12 11:01:37;;;;;;;32.00;19.57;;;6.70;99.90;;;;;;4989935;28;20208;-82
2020/12/12 11:04:04;;;;;;;26.30;18.17;;;6.70;99.90;;;;;;4990254;28;20231;-78
2020/12/12 11:06:30;;;;;;;31.70;18.60;;;6.70;99.90;;;;;;4989813;28;20223;-83
2020/12/12 11:08:56;;;;;;;29.00;18.03;;;6.70;99.90;;;;;;4989069;28;20934;-82
2020/12/12 11:11:23;;;;;;;27.87;18.80;;;6.80;99.90;;;;;;4989414;28;20203;-82
2020/12/12 11:13:49;;;;;;;30.97;19.53;;;6.80;99.90;;;;;;4989542;28;20208;-84
2020/12/12 11:16:18;;;;;;;29.07;18.37;;;6.80;99.90;;;;;;4989634;28;20207;-84
2020/12/12 11:18:48;;;;;;;32.47;20.33;;;6.90;99.90;;;;;;4989666;28;20228;-83
2020/12/12 11:21:19;;;;;;;31.53;19.33;;;6.90;99.90;;;;;;4988983;28;20212;-84
2020/12/12 11:23:45;;;;;;;27.23;18.40;;;6.90;99.90;;;;;;4989764;28;20220;-83
2020/12/12 11:26:12;;;;;;;38.40;20.73;;;7.00;99.90;;;;;;4988401;28;20208;-81
2020/12/12 11:28:38;;;;;;;31.97;18.90;;;7.00;99.90;;;;;;4986419;28;20300;-80
2020/12/12 11:31:05;;;;;;;26.27;17.60;;;7.10;99.90;;;;;;4990342;28;20626;-81
2020/12/12 11:33:31;;;;;;;35.97;22.13;;;7.10;99.90;;;;;;4990272;28;20207;-82
2020/12/12 11:36:09;;;;;;;38.20;22.07;;;7.10;99.90;;;;;;4990890;28;20299;-82
2020/12/12 11:38:42;;;;;;;37.57;21.47;;;7.10;99.90;;;;;;4990986;28;20230;-83
2020/12/12 11:41:20;;;;;;;42.67;22.30;;;7.20;99.90;;;;;;4990483;28;20234;-80
2020/12/12 11:44:20;;;;;;;37.37;21.97;;;7.20;99.90;;;;;;4990476;28;20203;-82
2020/12/12 11:46:47;;;;;;;48.60;25.63;;;7.20;99.90;;;;;;4991090;28;20244;-80
2020/12/12 11:49:14;;;;;;;51.17;26.17;;;7.30;99.90;;;;;;4990054;28;20675;-83
2020/12/12 11:51:41;;;;;;;53.37;24.90;;;7.30;99.90;;;;;;4991794;28;20203;-82
2020/12/12 11:54:08;;;;;;;46.47;23.53;;;7.30;99.90;;;;;;4991577;28;20208;-82
2020/12/12 11:56:34;;;;;;;48.97;24.77;;;7.40;99.90;;;;;;4993125;28;20199;-86
2020/12/12 11:59:01;;;;;;;52.53;25.87;;;7.40;99.90;;;;;;4994326;28;20220;-87
2020/12/12 12:01:28;;;;;;;54.20;26.43;;;7.40;99.90;;;;;;4994455;28;20203;-85
2020/12/12 12:03:55;;;;;;;57.07;27.53;;;7.50;99.90;;;;;;4994281;28;20292;-86
2020/12/12 12:06:22;;;;;;;63.90;29.43;;;7.50;99.90;;;;;;4993937;28;20853;-86
2020/12/12 12:09:08;;;;;;;67.00;29.97;;;7.50;99.90;;;;;;4993451;28;20200;-86
2020/12/12 12:11:35;;;;;;;66.57;29.97;;;7.60;99.90;;;;;;4994218;28;20204;-88
2020/12/12 12:14:03;;;;;;;76.87;33.27;;;7.60;99.90;;;;;;4994427;28;20759;-87
2020/12/12 12:16:35;;;;;;;71.13;31.93;;;7.60;99.90;;;;;;4993394;28;20204;-87
2020/12/12 12:19:03;;;;;;;62.70;27.60;;;7.60;99.90;;;;;;4994354;28;20511;-87
2020/12/12 12:21:29;;;;;;;65.40;29.43;;;7.60;99.90;;;;;;4994314;28;20616;-84
2020/12/12 12:23:56;;;;;;;72.77;32.47;;;7.60;99.90;;;;;;4993822;28;20207;-89
2020/12/12 12:26:23;;;;;;;57.37;27.37;;;7.60;99.90;;;;;;4993055;28;20206;-82
2020/12/12 12:28:49;;;;;;;59.93;29.03;;;7.60;99.90;;;;;;4993629;28;20211;-85
2020/12/12 12:31:19;;;;;;;61.40;28.20;;;7.70;99.90;;;;;;4992457;28;20207;-85
2020/12/12 12:33:46;;;;;;;69.00;30.07;;;7.70;99.90;;;;;;4993339;28;20231;-84
2020/12/12 12:36:12;;;;;;;69.53;32.87;;;7.70;99.90;;;;;;4993295;28;20663;-84
2020/12/12 12:38:38;;;;;;;73.93;31.27;;;7.70;99.90;;;;;;4992339;28;20220;-84
2020/12/12 12:41:05;;;;;;;76.43;32.60;;;7.70;99.90;;;;;;4992082;28;20196;-80
2020/12/12 12:43:31;;;;;;;68.33;30.30;;;7.70;99.90;;;;;;4989941;28;20215;-83
2020/12/12 12:45:58;;;;;;;63.87;29.27;;;7.70;99.90;;;;;;4986040;28;20231;-84
2020/12/12 12:48:24;;;;;;;75.23;33.60;;;7.80;99.90;;;;;;4987069;28;20482;-85
2020/12/12 12:50:50;;;;;;;68.50;29.87;;;7.80;99.90;;;;;;4987481;28;20606;-83
2020/12/12 12:53:17;;;;;;;81.13;33.97;;;7.80;99.90;;;;;;4986116;28;20775;-79
2020/12/12 12:55:43;;;;;;;90.17;36.53;;;7.80;99.90;;;;;;4986070;28;20215;-79
2020/12/12 12:58:10;;;;;;;88.40;35.50;;;7.80;99.90;;;;;;4985076;28;20204;-77
2020/12/12 13:00:39;;;;;;;82.43;32.70;;;7.80;99.90;;;;;;4985585;28;20200;-77
2020/12/12 13:03:06;;;;;;;64.87;29.57;;;7.80;99.90;;;;;;4985736;28;20264;-78